sensor_id;sensor_type;location;lat;lon;timestamp;temperature;humidity
2873;DHT22;1444;49.166;7.312;2024-02-23T00:00:22;8.30;99.90
2873;DHT22;1444;49.166;7.312;2024-02-23T00:02:49;8.30;99.90
2873;DHT22;1444;49.166;7.312;2024-02-23T00:05:16;8.30;99.90
2873;DHT22;1444;49.166;7.312;2024-02-23T00:07:46;8.20;99.90
2873;DHT22;1444;49.166;7.312;2024-02-23T00:10:13;8.20;99.90
2873;DHT22;1444;49.166;7.312;2024-02-23T00:12:40;8.20;99.90
2873;DHT22;1444;49.166;7.312;2024-02-23T00:15:08;8.20;99.90
2873;DHT22;1444;49.166;7.312;2024-02-23T00:17:34;8.10;99.90
2873;DHT22;1444;49.166;7.312;2024-02-23T00:20:01;8.10;99.90
2873;DHT22;1444;49.166;7.312;2024-02-23T00:22:28;8.10;99.90
2873;DHT22;1444;49.166;7.312;2024-02-23T00:24:56;8.10;99.90
2873;DHT22;1444;49.166;7.312;2024-02-23T00:27:23;8.10;99.90
2873;DHT22;1444;49.166;7.312;2024-02-23T00:32:17;8.10;99.90
2873;DHT22;1444;49.166;7.312;2024-02-23T00:34:44;8.10;99.90
2873;DHT22;1444;49.166;7.312;2024-02-23T00:37:11;8.00;99.90
2873;DHT22;1444;49.166;7.312;2024-02-23T00:39:38;7.90;99.90
2873;DHT22;1444;49.166;7.312;2024-02-23T00:42:07;8.00;99.90
2873;DHT22;1444;49.166;7.312;2024-02-23T00:44:34;7.90;99.90
2873;DHT22;1444;49.166;7.312;2024-02-23T00:47:01;7.90;99.90
2873;DHT22;1444;49.166;7.312;2024-02-23T00:49:29;7.90;99.90
2873;DHT22;1444;49.166;7.312;2024-02-23T00:51:56;7.90;99.90
2873;DHT22;1444;49.166;7.312;2024-02-23T00:54:23;7.90;99.90
2873;DHT22;1444;49.166;7.312;2024-02-23T00:56:50;7.90;99.90
2873;DHT22;1444;49.166;7.312;2024-02-23T00:59:18;8.00;99.90
2873;DHT22;1444;49.166;7.312;2024-02-23T01:01:46;7.90;99.90
2873;DHT22;1444;49.166;7.312;2024-02-23T01:04:13;7.80;99.90
2873;DHT22;1444;49.166;7.312;2024-02-23T01:06:40;7.80;99.90
2873;DHT22;1444;49.166;7.312;2024-02-23T01:09:06;7.80;99.90
2873;DHT22;1444;49.166;7.312;2024-02-23T01:11:33;7.90;99.90
2873;DHT22;1444;49.166;7.312;2024-02-23T01:14:00;7.80;99.90
2873;DHT22;1444;49.166;7.312;2024-02-23T01:16:28;7.90;99.90
2873;DHT22;1444;49.166;7.312;2024-02-23T01:18:55;7.80;99.90
2873;DHT22;1444;49.166;7.312;2024-02-23T01:21:22;7.80;99.90
2873;DHT22;1444;49.166;7.312;2024-02-23T01:23:49;7.90;99.90
2873;DHT22;1444;49.166;7.312;2024-02-23T01:26:16;7.80;99.90
2873;DHT22;1444;49.166;7.312;2024-02-23T01:28:43;7.80;99.90
2873;DHT22;1444;49.166;7.312;2024-02-23T01:31:10;7.70;99.90
2873;DHT22;1444;49.166;7.312;2024-02-23T01:33:39;7.70;99.90
2873;DHT22;1444;49.166;7.312;2024-02-23T01:36:06;7.80;99.90
2873;DHT22;1444;49.166;7.312;2024-02-23T01:38:33;7.60;99.90
2873;DHT22;1444;49.166;7.312;2024-02-23T01:41:00;7.70;99.90
2873;DHT22;1444;49.166;7.312;2024-02-23T01:43:28;7.50;99.90
2873;DHT22;1444;49.166;7.312;2024-02-23T01:45:54;7.50;99.90
2873;DHT22;1444;49.166;7.312;2024-02-23T01:48:21;7.50;99.90
2873;DHT22;1444;49.166;7.312;2024-02-23T01:50:50;7.50;99.90
2873;DHT22;1444;49.166;7.312;2024-02-23T01:53:18;7.40;99.90
2873;DHT22;1444;49.166;7.312;2024-02-23T01:55:45;7.40;99.90
2873;DHT22;1444;49.166;7.312;2024-02-23T01:58:12;7.50;99.90
2873;DHT22;1444;49.166;7.312;2024-02-23T02:00:39;7.50;99.90
2873;DHT22;1444;49.166;7.312;2024-02-23T02:03:08;7.50;99.90
2873;DHT22;1444;49.166;7.312;2024-02-23T02:05:35;7.50;99.90
2873;DHT22;1444;49.166;7.312;2024-02-23T02:08:04;7.40;99.90
2873;DHT22;1444;49.166;7.312;2024-02-23T02:10:32;7.40;99.90
2873;DHT22;1444;49.166;7.312;2024-02-23T02:13:02;7.40;99.90
2873;DHT22;1444;49.166;7.312;2024-02-23T02:15:30;7.40;99.90
2873;DHT22;1444;49.166;7.312;2024-02-23T02:17:56;7.30;99.90
2873;DHT22;1444;49.166;7.312;2024-02-23T02:20:24;7.20;99.90
2873;DHT22;1444;49.166;7.312;2024-02-23T02:22:52;7.20;99.90
2873;DHT22;1444;49.166;7.312;2024-02-23T02:25:20;7.30;99.90
2873;DHT22;1444;49.166;7.312;2024-02-23T02:27:47;7.30;99.90
2873;DHT22;1444;49.166;7.312;2024-02-23T02:30:14;7.30;99.90
2873;DHT22;1444;49.166;7.312;2024-02-23T02:32:41;7.20;99.90
2873;DHT22;1444;49.166;7.312;2024-02-23T02:35:11;7.20;99.90
2873;DHT22;1444;49.166;7.312;2024-02-23T02:37:38;7.20;99.90
2873;DHT22;1444;49.166;7.312;2024-02-23T02:40:06;7.00;99.90
2873;DHT22;1444;49.166;7.312;2024-02-23T02:42:35;6.90;99.90
2873;DHT22;1444;49.166;7.312;2024-02-23T02:45:02;7.00;99.90
2873;DHT22;1444;49.166;7.312;2024-02-23T02:47:29;7.00;99.90
2873;DHT22;1444;49.166;7.312;2024-02-23T02:49:56;6.90;99.90
2873;DHT22;1444;49.166;7.312;2024-02-23T02:52:23;6.90;99.90
2873;DHT22;1444;49.166;7.312;2024-02-23T02:54:50;6.90;99.90
2873;DHT22;1444;49.166;7.312;2024-02-23T02:57:17;6.80;99.90
2873;DHT22;1444;49.166;7.312;2024-02-23T02:59:45;6.80;99.90
2873;DHT22;1444;49.166;7.312;2024-02-23T03:02:12;6.90;99.90
2873;DHT22;1444;49.166;7.312;2024-02-23T03:04:45;6.90;99.90
2873;DHT22;1444;49.166;7.312;2024-02-23T03:07:12;6.80;99.90
2873;DHT22;1444;49.166;7.312;2024-02-23T03:09:39;6.70;99.90
2873;DHT22;1444;49.166;7.312;2024-02-23T03:12:07;6.60;99.90
2873;DHT22;1444;49.166;7.312;2024-02-23T03:14:34;6.60;99.90
2873;DHT22;1444;49.166;7.312;2024-02-23T03:17:04;6.60;99.90
2873;DHT22;1444;49.166;7.312;2024-02-23T03:19:31;6.60;99.90
2873;DHT22;1444;49.166;7.312;2024-02-23T03:21:58;6.60;99.90
2873;DHT22;1444;49.166;7.312;2024-02-23T03:24:25;6.60;99.90
2873;DHT22;1444;49.166;7.312;2024-02-23T03:29:19;6.50;99.90
2873;DHT22;1444;49.166;7.312;2024-02-23T03:31:47;6.50;99.90
2873;DHT22;1444;49.166;7.312;2024-02-23T03:34:15;6.50;99.90
2873;DHT22;1444;49.166;7.312;2024-02-23T03:36:42;6.50;99.90
2873;DHT22;1444;49.166;7.312;2024-02-23T03:39:09;6.40;99.90
2873;DHT22;1444;49.166;7.312;2024-02-23T03:41:37;6.30;99.90
2873;DHT22;1444;49.166;7.312;2024-02-23T03:44:04;6.30;99.90
2873;DHT22;1444;49.166;7.312;2024-02-23T03:46:30;6.30;99.90
2873;DHT22;1444;49.166;7.312;2024-02-23T03:48:56;6.20;99.90
2873;DHT22;1444;49.166;7.312;2024-02-23T03:51:25;6.20;99.90
2873;DHT22;1444;49.166;7.312;2024-02-23T03:53:52;6.20;99.90
2873;DHT22;1444;49.166;7.312;2024-02-23T03:56:22;6.10;99.90
2873;DHT22;1444;49.166;7.312;2024-02-23T03:58:48;6.20;99.90
2873;DHT22;1444;49.166;7.312;2024-02-23T04:01:15;6.10;99.90
2873;DHT22;1444;49.166;7.312;2024-02-23T04:03:42;6.00;99.90
2873;DHT22;1444;49.166;7.312;2024-02-23T04:06:09;6.10;99.90
2873;DHT22;1444;49.166;7.312;2024-02-23T04:08:37;5.90;99.90
2873;DHT22;1444;49.166;7.312;2024-02-23T04:11:04;6.00;99.90
2873;DHT22;1444;49.166;7.312;2024-02-23T04:13:31;5.90;99.90
2873;DHT22;1444;49.166;7.312;2024-02-23T04:15:58;5.90;99.90
2873;DHT22;1444;49.166;7.312;2024-02-23T04:18:27;5.90;99.90
2873;DHT22;1444;49.166;7.312;2024-02-23T04:20:54;5.90;99.90
2873;DHT22;1444;49.166;7.312;2024-02-23T04:23:20;5.90;99.90
2873;DHT22;1444;49.166;7.312;2024-02-23T04:25:49;5.80;99.90
2873;DHT22;1444;49.166;7.312;2024-02-23T04:28:16;5.80;99.90
2873;DHT22;1444;49.166;7.312;2024-02-23T04:30:43;5.80;99.90
2873;DHT22;1444;49.166;7.312;2024-02-23T04:33:10;5.80;99.90
2873;DHT22;1444;49.166;7.312;2024-02-23T04:35:37;5.90;99.90
2873;DHT22;1444;49.166;7.312;2024-02-23T04:38:04;5.90;99.90
2873;DHT22;1444;49.166;7.312;2024-02-23T04:40:31;5.90;99.90
2873;DHT22;1444;49.166;7.312;2024-02-23T04:43:00;5.90;99.90
2873;DHT22;1444;49.166;7.312;2024-02-23T04:45:26;6.00;99.90
2873;DHT22;1444;49.166;7.312;2024-02-23T04:47:53;5.90;99.90
2873;DHT22;1444;49.166;7.312;2024-02-23T04:50:20;5.80;99.90
2873;DHT22;1444;49.166;7.312;2024-02-23T04:52:47;5.70;99.90
2873;DHT22;1444;49.166;7.312;2024-02-23T04:55:15;5.70;99.90
2873;DHT22;1444;49.166;7.312;2024-02-23T04:57:42;5.90;99.90
2873;DHT22;1444;49.166;7.312;2024-02-23T05:00:11;5.90;99.90
2873;DHT22;1444;49.166;7.312;2024-02-23T05:02:38;5.90;99.90
2873;DHT22;1444;49.166;7.312;2024-02-23T05:05:06;5.70;99.90
2873;DHT22;1444;49.166;7.312;2024-02-23T05:07:34;5.70;99.90
2873;DHT22;1444;49.166;7.312;2024-02-23T05:10:01;5.50;99.90
2873;DHT22;1444;49.166;7.312;2024-02-23T05:12:27;5.60;99.90
2873;DHT22;1444;49.166;7.312;2024-02-23T05:14:54;5.60;99.90
2873;DHT22;1444;49.166;7.312;2024-02-23T05:17:22;5.50;99.90
2873;DHT22;1444;49.166;7.312;2024-02-23T05:19:49;5.40;99.90
2873;DHT22;1444;49.166;7.312;2024-02-23T05:22:16;5.40;99.90
2873;DHT22;1444;49.166;7.312;2024-02-23T05:24:44;5.50;99.90
2873;DHT22;1444;49.166;7.312;2024-02-23T05:27:11;5.40;99.90
2873;DHT22;1444;49.166;7.312;2024-02-23T05:29:37;5.30;99.90
2873;DHT22;1444;49.166;7.312;2024-02-23T05:32:05;5.30;99.90
2873;DHT22;1444;49.166;7.312;2024-02-23T05:34:33;5.20;99.90
2873;DHT22;1444;49.166;7.312;2024-02-23T05:37:01;5.20;99.90
2873;DHT22;1444;49.166;7.312;2024-02-23T05:39:28;5.20;99.90
2873;DHT22;1444;49.166;7.312;2024-02-23T05:41:55;5.20;99.90
2873;DHT22;1444;49.166;7.312;2024-02-23T05:46:52;5.10;99.90
2873;DHT22;1444;49.166;7.312;2024-02-23T05:49:19;5.10;99.90
2873;DHT22;1444;49.166;7.312;2024-02-23T05:51:47;5.10;99.90
2873;DHT22;1444;49.166;7.312;2024-02-23T05:54:14;5.10;99.90
2873;DHT22;1444;49.166;7.312;2024-02-23T05:56:41;5.00;99.90
2873;DHT22;1444;49.166;7.312;2024-02-23T05:59:07;5.00;99.90
2873;DHT22;1444;49.166;7.312;2024-02-23T06:01:34;5.00;99.90
2873;DHT22;1444;49.166;7.312;2024-02-23T06:04:01;5.00;99.90
2873;DHT22;1444;49.166;7.312;2024-02-23T06:06:28;5.00;99.90
2873;DHT22;1444;49.166;7.312;2024-02-23T06:08:56;5.00;99.90
2873;DHT22;1444;49.166;7.312;2024-02-23T06:11:23;5.00;99.90
2873;DHT22;1444;49.166;7.312;2024-02-23T06:13:50;4.90;99.90
2873;DHT22;1444;49.166;7.312;2024-02-23T06:16:16;4.90;99.90
2873;DHT22;1444;49.166;7.312;2024-02-23T06:18:43;4.90;99.90
2873;DHT22;1444;49.166;7.312;2024-02-23T06:21:13;4.80;99.90
2873;DHT22;1444;49.166;7.312;2024-02-23T06:23:40;4.70;99.90
2873;DHT22;1444;49.166;7.312;2024-02-23T06:26:09;4.80;99.90
2873;DHT22;1444;49.166;7.312;2024-02-23T06:28:36;4.80;99.90
2873;DHT22;1444;49.166;7.312;2024-02-23T06:31:04;4.70;99.90
2873;DHT22;1444;49.166;7.312;2024-02-23T06:33:32;4.80;99.90
2873;DHT22;1444;49.166;7.312;2024-02-23T06:35:59;4.70;99.90
2873;DHT22;1444;49.166;7.312;2024-02-23T06:38:26;4.80;99.90
2873;DHT22;1444;49.166;7.312;2024-02-23T06:40:54;4.90;99.90
2873;DHT22;1444;49.166;7.312;2024-02-23T06:43:23;4.80;99.90
2873;DHT22;1444;49.166;7.312;2024-02-23T06:45:50;4.90;99.90
2873;DHT22;1444;49.166;7.312;2024-02-23T06:48:17;4.90;99.90
2873;DHT22;1444;49.166;7.312;2024-02-23T06:50:43;4.90;99.90
2873;DHT22;1444;49.166;7.312;2024-02-23T06:53:10;5.00;99.90
2873;DHT22;1444;49.166;7.312;2024-02-23T06:55:37;5.00;99.90
2873;DHT22;1444;49.166;7.312;2024-02-23T06:58:04;5.10;99.90
2873;DHT22;1444;49.166;7.312;2024-02-23T07:00:34;5.00;99.90
2873;DHT22;1444;49.166;7.312;2024-02-23T07:03:01;5.10;99.90
2873;DHT22;1444;49.166;7.312;2024-02-23T07:05:29;4.90;99.90
2873;DHT22;1444;49.166;7.312;2024-02-23T07:07:56;4.90;99.90
2873;DHT22;1444;49.166;7.312;2024-02-23T07:10:23;4.90;99.90
2873;DHT22;1444;49.166;7.312;2024-02-23T07:12:51;4.90;99.90
2873;DHT22;1444;49.166;7.312;2024-02-23T07:15:19;4.80;99.90
2873;DHT22;1444;49.166;7.312;2024-02-23T07:17:48;4.90;99.90
2873;DHT22;1444;49.166;7.312;2024-02-23T07:20:14;5.00;99.90
2873;DHT22;1444;49.166;7.312;2024-02-23T07:22:44;5.00;99.90
2873;DHT22;1444;49.166;7.312;2024-02-23T07:25:11;5.00;99.90
2873;DHT22;1444;49.166;7.312;2024-02-23T07:27:38;5.20;99.90
2873;DHT22;1444;49.166;7.312;2024-02-23T07:30:06;5.30;99.90
2873;DHT22;1444;49.166;7.312;2024-02-23T07:32:34;5.50;99.90
2873;DHT22;1444;49.166;7.312;2024-02-23T07:35:03;6.00;99.90
2873;DHT22;1444;49.166;7.312;2024-02-23T07:37:30;6.30;99.90
2873;DHT22;1444;49.166;7.312;2024-02-23T07:39:57;7.00;99.90
2873;DHT22;1444;49.166;7.312;2024-02-23T07:42:24;7.60;99.90
2873;DHT22;1444;49.166;7.312;2024-02-23T07:44:51;8.00;99.90
2873;DHT22;1444;49.166;7.312;2024-02-23T07:47:17;8.50;99.90
2873;DHT22;1444;49.166;7.312;2024-02-23T07:49:44;8.80;99.90
2873;DHT22;1444;49.166;7.312;2024-02-23T07:52:13;9.00;99.90
2873;DHT22;1444;49.166;7.312;2024-02-23T07:54:39;8.70;99.90
2873;DHT22;1444;49.166;7.312;2024-02-23T07:57:07;9.10;99.90
2873;DHT22;1444;49.166;7.312;2024-02-23T07:59:34;9.30;99.90
2873;DHT22;1444;49.166;7.312;2024-02-23T08:02:01;9.30;99.80
2873;DHT22;1444;49.166;7.312;2024-02-23T08:04:28;9.60;99.80
2873;DHT22;1444;49.166;7.312;2024-02-23T08:06:55;9.50;99.40
2873;DHT22;1444;49.166;7.312;2024-02-23T08:09:23;9.80;99.30
2873;DHT22;1444;49.166;7.312;2024-02-23T08:11:50;10.00;98.60
2873;DHT22;1444;49.166;7.312;2024-02-23T08:14:17;10.20;98.40
2873;DHT22;1444;49.166;7.312;2024-02-23T08:16:44;10.50;97.70
2873;DHT22;1444;49.166;7.312;2024-02-23T08:19:11;10.80;97.80
2873;DHT22;1444;49.166;7.312;2024-02-23T08:21:38;10.60;97.50
2873;DHT22;1444;49.166;7.312;2024-02-23T08:24:07;10.50;96.90
2873;DHT22;1444;49.166;7.312;2024-02-23T08:26:35;10.90;98.00
2873;DHT22;1444;49.166;7.312;2024-02-23T08:29:03;10.80;97.40
2873;DHT22;1444;49.166;7.312;2024-02-23T08:31:30;10.50;97.20
2873;DHT22;1444;49.166;7.312;2024-02-23T08:33:57;9.90;97.80
2873;DHT22;1444;49.166;7.312;2024-02-23T08:36:24;9.80;98.30
2873;DHT22;1444;49.166;7.312;2024-02-23T08:38:51;9.80;98.70
2873;DHT22;1444;49.166;7.312;2024-02-23T08:41:18;9.50;99.10
2873;DHT22;1444;49.166;7.312;2024-02-23T08:43:46;9.30;98.70
2873;DHT22;1444;49.166;7.312;2024-02-23T08:46:13;9.40;99.60
2873;DHT22;1444;49.166;7.312;2024-02-23T08:48:39;9.00;99.50
2873;DHT22;1444;49.166;7.312;2024-02-23T08:53:34;8.30;99.90
2873;DHT22;1444;49.166;7.312;2024-02-23T08:56:01;8.10;99.90
2873;DHT22;1444;49.166;7.312;2024-02-23T08:58:27;7.90;99.90
2873;DHT22;1444;49.166;7.312;2024-02-23T09:00:56;7.60;99.90
2873;DHT22;1444;49.166;7.312;2024-02-23T09:03:22;7.60;99.90
2873;DHT22;1444;49.166;7.312;2024-02-23T09:05:49;7.50;99.90
2873;DHT22;1444;49.166;7.312;2024-02-23T09:08:16;7.40;99.90
2873;DHT22;1444;49.166;7.312;2024-02-23T09:10:43;7.40;99.90
2873;DHT22;1444;49.166;7.312;2024-02-23T09:13:11;7.20;99.90
2873;DHT22;1444;49.166;7.312;2024-02-23T09:15:37;7.40;99.90
2873;DHT22;1444;49.166;7.312;2024-02-23T09:18:06;7.30;99.90
2873;DHT22;1444;49.166;7.312;2024-02-23T09:20:33;7.20;99.90
2873;DHT22;1444;49.166;7.312;2024-02-23T09:23:00;7.40;99.90
2873;DHT22;1444;49.166;7.312;2024-02-23T09:25:27;7.40;99.90
2873;DHT22;1444;49.166;7.312;2024-02-23T09:27:57;7.40;99.90
2873;DHT22;1444;49.166;7.312;2024-02-23T09:30:23;7.50;99.90
2873;DHT22;1444;49.166;7.312;2024-02-23T09:32:50;7.70;99.90
2873;DHT22;1444;49.166;7.312;2024-02-23T09:35:18;7.70;99.90
2873;DHT22;1444;49.166;7.312;2024-02-23T09:37:45;7.50;99.90
2873;DHT22;1444;49.166;7.312;2024-02-23T09:40:12;7.70;99.90
2873;DHT22;1444;49.166;7.312;2024-02-23T09:42:40;7.70;99.90
2873;DHT22;1444;49.166;7.312;2024-02-23T09:45:08;7.50;99.90
2873;DHT22;1444;49.166;7.312;2024-02-23T09:47:38;7.80;99.90
2873;DHT22;1444;49.166;7.312;2024-02-23T09:50:06;7.80;99.90
2873;DHT22;1444;49.166;7.312;2024-02-23T09:52:36;7.90;99.90
2873;DHT22;1444;49.166;7.312;2024-02-23T09:55:03;8.00;99.90
2873;DHT22;1444;49.166;7.312;2024-02-23T09:57:31;8.10;99.90
2873;DHT22;1444;49.166;7.312;2024-02-23T09:59:58;8.00;99.90
2873;DHT22;1444;49.166;7.312;2024-02-23T10:02:25;8.10;99.90
2873;DHT22;1444;49.166;7.312;2024-02-23T10:04:54;8.10;99.90
2873;DHT22;1444;49.166;7.312;2024-02-23T10:07:23;8.10;99.90
2873;DHT22;1444;49.166;7.312;2024-02-23T10:09:53;8.10;99.90
2873;DHT22;1444;49.166;7.312;2024-02-23T10:12:20;8.00;99.90
2873;DHT22;1444;49.166;7.312;2024-02-23T10:14:47;8.20;99.90
2873;DHT22;1444;49.166;7.312;2024-02-23T10:17:14;8.40;99.90
2873;DHT22;1444;49.166;7.312;2024-02-23T10:19:41;8.30;99.90
2873;DHT22;1444;49.166;7.312;2024-02-23T10:22:08;8.50;99.90
2873;DHT22;1444;49.166;7.312;2024-02-23T10:24:36;8.40;99.90
2873;DHT22;1444;49.166;7.312;2024-02-23T10:27:05;8.30;99.90
2873;DHT22;1444;49.166;7.312;2024-02-23T10:29:32;8.20;99.90
2873;DHT22;1444;49.166;7.312;2024-02-23T10:31:59;8.10;99.90
2873;DHT22;1444;49.166;7.312;2024-02-23T10:34:32;8.20;99.90
2873;DHT22;1444;49.166;7.312;2024-02-23T10:37:01;8.20;99.90
2873;DHT22;1444;49.166;7.312;2024-02-23T10:39:29;8.20;99.90
2873;DHT22;1444;49.166;7.312;2024-02-23T10:41:58;8.30;99.90
2873;DHT22;1444;49.166;7.312;2024-02-23T10:44:28;8.10;99.90
2873;DHT22;1444;49.166;7.312;2024-02-23T10:46:56;8.00;99.90
2873;DHT22;1444;49.166;7.312;2024-02-23T10:49:24;8.30;99.90
2873;DHT22;1444;49.166;7.312;2024-02-23T10:51:53;8.20;99.90
2873;DHT22;1444;49.166;7.312;2024-02-23T10:54:20;8.10;99.90
2873;DHT22;1444;49.166;7.312;2024-02-23T10:56:49;8.20;99.90
2873;DHT22;1444;49.166;7.312;2024-02-23T10:59:17;8.20;99.90
2873;DHT22;1444;49.166;7.312;2024-02-23T11:01:47;8.40;99.90
2873;DHT22;1444;49.166;7.312;2024-02-23T11:04:16;8.60;99.90
2873;DHT22;1444;49.166;7.312;2024-02-23T11:06:48;8.90;99.90
2873;DHT22;1444;49.166;7.312;2024-02-23T11:09:15;8.70;99.80
2873;DHT22;1444;49.166;7.312;2024-02-23T11:11:52;9.00;99.90
2873;DHT22;1444;49.166;7.312;2024-02-23T11:14:29;9.20;99.90
2873;DHT22;1444;49.166;7.312;2024-02-23T11:16:58;9.60;99.90
2873;DHT22;1444;49.166;7.312;2024-02-23T11:19:32;9.50;99.60
2873;DHT22;1444;49.166;7.312;2024-02-23T11:22:01;9.40;99.90
2873;DHT22;1444;49.166;7.312;2024-02-23T11:24:28;9.30;99.70
2873;DHT22;1444;49.166;7.312;2024-02-23T11:26:59;9.10;99.90
2873;DHT22;1444;49.166;7.312;2024-02-23T11:29:33;8.90;98.50
2873;DHT22;1444;49.166;7.312;2024-02-23T11:32:03;9.00;99.30
2873;DHT22;1444;49.166;7.312;2024-02-23T11:34:30;9.10;99.90
2873;DHT22;1444;49.166;7.312;2024-02-23T11:36:57;9.20;99.70
2873;DHT22;1444;49.166;7.312;2024-02-23T11:39:26;9.20;98.80
2873;DHT22;1444;49.166;7.312;2024-02-23T11:41:53;9.20;98.80
2873;DHT22;1444;49.166;7.312;2024-02-23T11:44:20;9.00;98.20
2873;DHT22;1444;49.166;7.312;2024-02-23T11:46:47;9.10;99.30
2873;DHT22;1444;49.166;7.312;2024-02-23T11:49:15;9.20;99.40
2873;DHT22;1444;49.166;7.312;2024-02-23T11:51:43;9.40;99.30
2873;DHT22;1444;49.166;7.312;2024-02-23T11:54:10;9.70;99.50
2873;DHT22;1444;49.166;7.312;2024-02-23T11:56:37;9.60;98.40
2873;DHT22;1444;49.166;7.312;2024-02-23T11:59:04;9.70;98.30
2873;DHT22;1444;49.166;7.312;2024-02-23T12:01:32;9.40;99.00
2873;DHT22;1444;49.166;7.312;2024-02-23T12:03:58;9.40;98.90
2873;DHT22;1444;49.166;7.312;2024-02-23T12:06:27;9.60;99.00
2873;DHT22;1444;49.166;7.312;2024-02-23T12:08:58;9.60;98.50
2873;DHT22;1444;49.166;7.312;2024-02-23T12:11:24;9.70;99.30
2873;DHT22;1444;49.166;7.312;2024-02-23T12:13:52;9.80;98.30
2873;DHT22;1444;49.166;7.312;2024-02-23T12:16:20;10.00;98.00
2873;DHT22;1444;49.166;7.312;2024-02-23T12:18:53;10.40;98.50
2873;DHT22;1444;49.166;7.312;2024-02-23T12:21:21;10.50;97.40
2873;DHT22;1444;49.166;7.312;2024-02-23T12:23:50;10.70;97.20
2873;DHT22;1444;49.166;7.312;2024-02-23T12:26:17;10.80;96.90
2873;DHT22;1444;49.166;7.312;2024-02-23T12:28:45;10.90;97.10
2873;DHT22;1444;49.166;7.312;2024-02-23T12:31:12;11.10;97.40
2873;DHT22;1444;49.166;7.312;2024-02-23T12:33:40;11.00;96.00
2873;DHT22;1444;49.166;7.312;2024-02-23T12:36:08;11.00;94.90
2873;DHT22;1444;49.166;7.312;2024-02-23T12:38:35;11.10;96.60
2873;DHT22;1444;49.166;7.312;2024-02-23T12:41:04;11.10;95.90
2873;DHT22;1444;49.166;7.312;2024-02-23T12:43:31;11.10;96.50
2873;DHT22;1444;49.166;7.312;2024-02-23T12:45:58;11.00;96.00
2873;DHT22;1444;49.166;7.312;2024-02-23T12:48:26;11.00;96.70
2873;DHT22;1444;49.166;7.312;2024-02-23T12:50:53;11.00;96.00
2873;DHT22;1444;49.166;7.312;2024-02-23T12:53:34;10.90;96.70
2873;DHT22;1444;49.166;7.312;2024-02-23T12:56:04;10.50;94.20
2873;DHT22;1444;49.166;7.312;2024-02-23T12:58:31;10.60;96.60
2873;DHT22;1444;49.166;7.312;2024-02-23T13:00:58;10.30;95.50
2873;DHT22;1444;49.166;7.312;2024-02-23T13:03:25;10.50;96.50
2873;DHT22;1444;49.166;7.312;2024-02-23T13:05:53;10.20;95.70
2873;DHT22;1444;49.166;7.312;2024-02-23T13:08:20;10.20;96.00
2873;DHT22;1444;49.166;7.312;2024-02-23T13:10:47;9.90;96.20
2873;DHT22;1444;49.166;7.312;2024-02-23T13:13:16;10.00;96.80
2873;DHT22;1444;49.166;7.312;2024-02-23T13:15:43;10.10;96.90
2873;DHT22;1444;49.166;7.312;2024-02-23T13:18:09;10.20;97.50
2873;DHT22;1444;49.166;7.312;2024-02-23T13:20:37;10.20;96.30
2873;DHT22;1444;49.166;7.312;2024-02-23T13:23:04;10.20;96.40
2873;DHT22;1444;49.166;7.312;2024-02-23T13:25:32;10.20;95.80
2873;DHT22;1444;49.166;7.312;2024-02-23T13:27:59;10.10;95.30
2873;DHT22;1444;49.166;7.312;2024-02-23T13:30:28;10.00;95.40
2873;DHT22;1444;49.166;7.312;2024-02-23T13:32:55;10.10;95.40
2873;DHT22;1444;49.166;7.312;2024-02-23T13:35:21;10.20;95.80
2873;DHT22;1444;49.166;7.312;2024-02-23T13:37:48;10.10;96.20
2873;DHT22;1444;49.166;7.312;2024-02-23T13:40:15;10.10;96.70
2873;DHT22;1444;49.166;7.312;2024-02-23T13:42:42;10.00;96.70
2873;DHT22;1444;49.166;7.312;2024-02-23T13:45:11;9.90;96.50
2873;DHT22;1444;49.166;7.312;2024-02-23T13:47:41;10.10;96.60
2873;DHT22;1444;49.166;7.312;2024-02-23T13:50:10;9.90;95.70
2873;DHT22;1444;49.166;7.312;2024-02-23T13:52:37;10.00;94.80
2873;DHT22;1444;49.166;7.312;2024-02-23T13:55:05;9.90;96.10
2873;DHT22;1444;49.166;7.312;2024-02-23T13:57:31;9.80;95.90
2873;DHT22;1444;49.166;7.312;2024-02-23T13:59:59;9.80;96.40
2873;DHT22;1444;49.166;7.312;2024-02-23T14:02:26;9.80;96.30
2873;DHT22;1444;49.166;7.312;2024-02-23T14:05:00;9.70;96.10
2873;DHT22;1444;49.166;7.312;2024-02-23T14:07:29;9.60;96.20
2873;DHT22;1444;49.166;7.312;2024-02-23T14:09:55;9.40;96.30
2873;DHT22;1444;49.166;7.312;2024-02-23T14:12:22;9.40;96.60
2873;DHT22;1444;49.166;7.312;2024-02-23T14:14:49;9.30;96.50
2873;DHT22;1444;49.166;7.312;2024-02-23T14:17:16;9.40;96.70
2873;DHT22;1444;49.166;7.312;2024-02-23T14:19:43;9.30;96.60
2873;DHT22;1444;49.166;7.312;2024-02-23T14:22:11;9.30;96.00
2873;DHT22;1444;49.166;7.312;2024-02-23T14:24:38;9.50;96.70
2873;DHT22;1444;49.166;7.312;2024-02-23T14:27:06;9.40;96.80
2873;DHT22;1444;49.166;7.312;2024-02-23T14:29:33;9.40;96.30
2873;DHT22;1444;49.166;7.312;2024-02-23T14:32:00;9.40;96.40
2873;DHT22;1444;49.166;7.312;2024-02-23T14:34:27;9.50;96.80
2873;DHT22;1444;49.166;7.312;2024-02-23T14:36:55;9.60;97.30
2873;DHT22;1444;49.166;7.312;2024-02-23T14:39:24;9.50;96.90
2873;DHT22;1444;49.166;7.312;2024-02-23T14:41:51;9.60;97.30
2873;DHT22;1444;49.166;7.312;2024-02-23T14:44:18;9.70;97.90
2873;DHT22;1444;49.166;7.312;2024-02-23T14:46:44;9.40;99.40
2873;DHT22;1444;49.166;7.312;2024-02-23T14:49:11;9.00;99.90
2873;DHT22;1444;49.166;7.312;2024-02-23T14:51:38;8.80;99.90
2873;DHT22;1444;49.166;7.312;2024-02-23T14:54:08;8.70;99.90
2873;DHT22;1444;49.166;7.312;2024-02-23T14:56:36;8.50;99.90
2873;DHT22;1444;49.166;7.312;2024-02-23T14:59:04;8.50;99.90
2873;DHT22;1444;49.166;7.312;2024-02-23T15:01:31;8.50;99.90
2873;DHT22;1444;49.166;7.312;2024-02-23T15:03:58;8.50;99.90
2873;DHT22;1444;49.166;7.312;2024-02-23T15:06:25;8.50;99.90
2873;DHT22;1444;49.166;7.312;2024-02-23T15:08:53;8.30;99.90
2873;DHT22;1444;49.166;7.312;2024-02-23T15:11:20;8.30;99.90
2873;DHT22;1444;49.166;7.312;2024-02-23T15:13:49;8.10;99.90
2873;DHT22;1444;49.166;7.312;2024-02-23T15:16:17;8.00;99.90
2873;DHT22;1444;49.166;7.312;2024-02-23T15:18:43;8.10;99.90
2873;DHT22;1444;49.166;7.312;2024-02-23T15:21:10;8.10;99.90
2873;DHT22;1444;49.166;7.312;2024-02-23T15:23:37;8.10;99.90
2873;DHT22;1444;49.166;7.312;2024-02-23T15:26:06;8.00;99.90
2873;DHT22;1444;49.166;7.312;2024-02-23T15:28:33;8.00;99.90
2873;DHT22;1444;49.166;7.312;2024-02-23T15:31:01;8.10;99.90
2873;DHT22;1444;49.166;7.312;2024-02-23T15:33:28;8.10;99.90
2873;DHT22;1444;49.166;7.312;2024-02-23T15:35:55;8.20;99.90
2873;DHT22;1444;49.166;7.312;2024-02-23T15:38:22;8.20;99.90
2873;DHT22;1444;49.166;7.312;2024-02-23T15:40:50;8.00;99.90
2873;DHT22;1444;49.166;7.312;2024-02-23T15:43:17;7.80;99.90
2873;DHT22;1444;49.166;7.312;2024-02-23T15:45:44;7.80;99.90
2873;DHT22;1444;49.166;7.312;2024-02-23T15:48:12;7.90;99.90
2873;DHT22;1444;49.166;7.312;2024-02-23T15:50:39;8.00;99.90
2873;DHT22;1444;49.166;7.312;2024-02-23T15:53:06;8.00;99.90
2873;DHT22;1444;49.166;7.312;2024-02-23T15:55:33;8.10;99.90
2873;DHT22;1444;49.166;7.312;2024-02-23T15:58:02;8.20;99.90
2873;DHT22;1444;49.166;7.312;2024-02-23T16:00:29;8.20;99.90
2873;DHT22;1444;49.166;7.312;2024-02-23T16:02:55;8.20;99.90
2873;DHT22;1444;49.166;7.312;2024-02-23T16:05:24;8.30;99.90
2873;DHT22;1444;49.166;7.312;2024-02-23T16:07:50;8.30;99.90
2873;DHT22;1444;49.166;7.312;2024-02-23T16:10:17;8.30;99.90
2873;DHT22;1444;49.166;7.312;2024-02-23T16:12:49;8.30;99.90
2873;DHT22;1444;49.166;7.312;2024-02-23T16:15:16;8.40;99.90
2873;DHT22;1444;49.166;7.312;2024-02-23T16:17:43;8.40;99.90
2873;DHT22;1444;49.166;7.312;2024-02-23T16:20:10;8.30;99.90
2873;DHT22;1444;49.166;7.312;2024-02-23T16:22:38;8.10;99.90
2873;DHT22;1444;49.166;7.312;2024-02-23T16:25:06;8.00;99.90
2873;DHT22;1444;49.166;7.312;2024-02-23T16:27:35;7.90;99.90